sensor_id;sensor_type;location;lat;lon;timestamp;pressure;altitude;pressure_sealevel;temperature;humidity
6387;BME280;3226;42.162;24.756;2023-08-08T00:00:01;99236.44;;;23.45;51.47
6387;BME280;3226;42.162;24.756;2023-08-08T00:02:29;99237.38;;;23.51;51.32
6387;BME280;3226;42.162;24.756;2023-08-08T00:04:57;99238.38;;;23.38;52.04
6387;BME280;3226;42.162;24.756;2023-08-08T00:07:27;99231.75;;;23.41;51.95
6387;BME280;3226;42.162;24.756;2023-08-08T00:09:56;99233.22;;;23.36;52.01
6387;BME280;3226;42.162;24.756;2023-08-08T00:12:24;99229.66;;;23.43;51.80
6387;BME280;3226;42.162;24.756;2023-08-08T00:14:52;99234.13;;;23.49;51.95
6387;BME280;3226;42.162;24.756;2023-08-08T00:17:20;99238.06;;;23.46;51.87
6387;BME280;3226;42.162;24.756;2023-08-08T00:19:48;99242.13;;;23.49;51.74
6387;BME280;3226;42.162;24.756;2023-08-08T00:22:16;99240.84;;;23.33;52.38
6387;BME280;3226;42.162;24.756;2023-08-08T00:24:45;99238.47;;;23.24;53.17
6387;BME280;3226;42.162;24.756;2023-08-08T00:27:13;99235.59;;;23.26;52.98
6387;BME280;3226;42.162;24.756;2023-08-08T00:29:41;99242.88;;;23.37;52.60
6387;BME280;3226;42.162;24.756;2023-08-08T00:32:09;99250.00;;;23.44;52.75
6387;BME280;3226;42.162;24.756;2023-08-08T00:34:37;99239.91;;;23.27;53.30
6387;BME280;3226;42.162;24.756;2023-08-08T00:37:05;99250.75;;;23.32;53.46
6387;BME280;3226;42.162;24.756;2023-08-08T00:39:33;99252.72;;;23.11;54.68
6387;BME280;3226;42.162;24.756;2023-08-08T00:42:03;99256.28;;;23.05;55.67
6387;BME280;3226;42.162;24.756;2023-08-08T00:44:31;99252.66;;;23.00;56.14
6387;BME280;3226;42.162;24.756;2023-08-08T00:46:59;99238.47;;;22.99;55.88
6387;BME280;3226;42.162;24.756;2023-08-08T00:49:27;99246.75;;;22.91;56.71
6387;BME280;3226;42.162;24.756;2023-08-08T00:51:55;99243.81;;;22.99;56.77
6387;BME280;3226;42.162;24.756;2023-08-08T00:54:24;99248.56;;;22.97;56.65
6387;BME280;3226;42.162;24.756;2023-08-08T00:56:52;99242.28;;;23.10;56.37
6387;BME280;3226;42.162;24.756;2023-08-08T00:59:23;99250.66;;;23.14;56.17
6387;BME280;3226;42.162;24.756;2023-08-08T01:01:51;99239.94;;;22.95;56.57
6387;BME280;3226;42.162;24.756;2023-08-08T01:04:21;99232.06;;;22.81;56.73
6387;BME280;3226;42.162;24.756;2023-08-08T01:06:58;99262.22;;;23.07;56.49
6387;BME280;3226;42.162;24.756;2023-08-08T01:09:32;99258.19;;;22.98;57.20
6387;BME280;3226;42.162;24.756;2023-08-08T01:12:04;99262.53;;;22.92;57.38
6387;BME280;3226;42.162;24.756;2023-08-08T01:14:35;99264.13;;;23.00;57.53
6387;BME280;3226;42.162;24.756;2023-08-08T01:17:05;99268.56;;;22.88;57.53
6387;BME280;3226;42.162;24.756;2023-08-08T01:19:34;99270.56;;;22.92;57.46
6387;BME280;3226;42.162;24.756;2023-08-08T01:22:04;99263.97;;;22.95;57.74
6387;BME280;3226;42.162;24.756;2023-08-08T01:24:35;99263.38;;;22.93;57.59
6387;BME280;3226;42.162;24.756;2023-08-08T01:27:04;99274.66;;;22.95;57.65
6387;BME280;3226;42.162;24.756;2023-08-08T01:29:34;99269.97;;;22.90;57.63
6387;BME280;3226;42.162;24.756;2023-08-08T01:32:02;99286.38;;;22.62;58.67
6387;BME280;3226;42.162;24.756;2023-08-08T01:34:30;99288.19;;;22.68;58.28
6387;BME280;3226;42.162;24.756;2023-08-08T01:37:02;99286.66;;;22.53;58.11
6387;BME280;3226;42.162;24.756;2023-08-08T01:39:35;99284.75;;;22.61;57.39
6387;BME280;3226;42.162;24.756;2023-08-08T01:42:06;99295.38;;;22.67;57.35
6387;BME280;3226;42.162;24.756;2023-08-08T01:44:34;99303.72;;;22.39;57.86
6387;BME280;3226;42.162;24.756;2023-08-08T01:47:03;99298.19;;;22.34;57.72
6387;BME280;3226;42.162;24.756;2023-08-08T01:49:31;99295.16;;;22.30;57.82
6387;BME280;3226;42.162;24.756;2023-08-08T01:51:59;99300.44;;;22.37;58.02
6387;BME280;3226;42.162;24.756;2023-08-08T01:54:27;99302.91;;;22.38;58.04
6387;BME280;3226;42.162;24.756;2023-08-08T01:56:56;99298.97;;;22.41;57.77
6387;BME280;3226;42.162;24.756;2023-08-08T01:59:24;99308.09;;;22.20;58.14
6387;BME280;3226;42.162;24.756;2023-08-08T02:01:52;99305.94;;;22.03;58.93
6387;BME280;3226;42.162;24.756;2023-08-08T02:04:20;99305.94;;;21.97;59.34
6387;BME280;3226;42.162;24.756;2023-08-08T02:06:48;99311.84;;;22.12;59.10
6387;BME280;3226;42.162;24.756;2023-08-08T02:09:16;99312.47;;;22.01;59.60
6387;BME280;3226;42.162;24.756;2023-08-08T02:11:47;99323.56;;;21.98;59.62
6387;BME280;3226;42.162;24.756;2023-08-08T02:14:16;99320.94;;;21.84;60.07
6387;BME280;3226;42.162;24.756;2023-08-08T02:16:44;99336.34;;;21.75;59.91
6387;BME280;3226;42.162;24.756;2023-08-08T02:19:12;99330.41;;;21.53;61.02
6387;BME280;3226;42.162;24.756;2023-08-08T02:21:41;99330.78;;;21.57;61.02
6387;BME280;3226;42.162;24.756;2023-08-08T02:24:09;99317.47;;;21.57;60.80
6387;BME280;3226;42.162;24.756;2023-08-08T02:26:37;99333.25;;;21.72;60.93
6387;BME280;3226;42.162;24.756;2023-08-08T02:29:05;99331.22;;;21.47;61.94
6387;BME280;3226;42.162;24.756;2023-08-08T02:31:34;99336.34;;;21.62;61.39
6387;BME280;3226;42.162;24.756;2023-08-08T02:34:02;99347.78;;;21.56;61.39
6387;BME280;3226;42.162;24.756;2023-08-08T02:36:30;99343.09;;;21.51;61.40
6387;BME280;3226;42.162;24.756;2023-08-08T02:38:59;99344.13;;;21.36;62.23
6387;BME280;3226;42.162;24.756;2023-08-08T02:41:27;99349.25;;;21.25;63.14
6387;BME280;3226;42.162;24.756;2023-08-08T02:43:55;99352.31;;;21.15;63.61
6387;BME280;3226;42.162;24.756;2023-08-08T02:46:23;99356.63;;;21.29;62.80
6387;BME280;3226;42.162;24.756;2023-08-08T02:48:53;99347.59;;;21.30;62.64
6387;BME280;3226;42.162;24.756;2023-08-08T02:51:21;99365.66;;;21.35;63.32
6387;BME280;3226;42.162;24.756;2023-08-08T02:53:49;99364.00;;;21.47;62.83
6387;BME280;3226;42.162;24.756;2023-08-08T02:56:17;99364.41;;;21.44;62.84
6387;BME280;3226;42.162;24.756;2023-08-08T02:58:45;99372.00;;;21.54;62.22
6387;BME280;3226;42.162;24.756;2023-08-08T03:01:13;99372.59;;;21.56;62.63
6387;BME280;3226;42.162;24.756;2023-08-08T03:03:42;99359.09;;;21.31;63.61
6387;BME280;3226;42.162;24.756;2023-08-08T03:06:12;99368.72;;;21.32;64.32
6387;BME280;3226;42.162;24.756;2023-08-08T03:08:40;99319.34;;;20.96;63.99
6387;BME280;3226;42.162;24.756;2023-08-08T03:11:08;99377.09;;;21.22;64.42
6387;BME280;3226;42.162;24.756;2023-08-08T03:16:04;99394.53;;;21.25;64.60
6387;BME280;3226;42.162;24.756;2023-08-08T03:18:32;99400.00;;;20.96;66.35
6387;BME280;3226;42.162;24.756;2023-08-08T03:21:00;99406.88;;;20.70;67.99
6387;BME280;3226;42.162;24.756;2023-08-08T03:23:29;99413.75;;;20.58;69.08
6387;BME280;3226;42.162;24.756;2023-08-08T03:25:57;99405.94;;;20.49;70.10
6387;BME280;3226;42.162;24.756;2023-08-08T03:28:25;99418.19;;;20.37;70.98
6387;BME280;3226;42.162;24.756;2023-08-08T03:30:53;99427.06;;;20.58;70.06
6387;BME280;3226;42.162;24.756;2023-08-08T03:33:21;99428.69;;;20.59;70.02
6387;BME280;3226;42.162;24.756;2023-08-08T03:35:49;99434.72;;;20.74;69.54
6387;BME280;3226;42.162;24.756;2023-08-08T03:38:17;99444.94;;;20.77;69.20
6387;BME280;3226;42.162;24.756;2023-08-08T03:40:47;99453.75;;;20.78;69.43
6387;BME280;3226;42.162;24.756;2023-08-08T03:43:15;99462.72;;;20.70;70.21
6387;BME280;3226;42.162;24.756;2023-08-08T03:45:44;99454.91;;;20.27;73.10
6387;BME280;3226;42.162;24.756;2023-08-08T03:48:12;99464.84;;;19.89;77.33
6387;BME280;3226;42.162;24.756;2023-08-08T03:50:40;99460.31;;;19.83;79.26
6387;BME280;3226;42.162;24.756;2023-08-08T03:53:08;99465.78;;;19.53;83.57
6387;BME280;3226;42.162;24.756;2023-08-08T03:55:36;99463.38;;;19.58;85.52
6387;BME280;3226;42.162;24.756;2023-08-08T03:58:05;99478.81;;;19.70;88.30
6387;BME280;3226;42.162;24.756;2023-08-08T04:00:33;99486.44;;;19.79;87.51
6387;BME280;3226;42.162;24.756;2023-08-08T04:03:01;99495.88;;;19.82;87.37
6387;BME280;3226;42.162;24.756;2023-08-08T04:05:30;99487.25;;;19.58;87.39
6387;BME280;3226;42.162;24.756;2023-08-08T04:07:58;99513.44;;;19.61;88.26
6387;BME280;3226;42.162;24.756;2023-08-08T04:10:26;99511.31;;;19.72;87.74
6387;BME280;3226;42.162;24.756;2023-08-08T04:12:54;99511.06;;;19.67;86.79
6387;BME280;3226;42.162;24.756;2023-08-08T04:15:23;99523.00;;;19.56;86.56
6387;BME280;3226;42.162;24.756;2023-08-08T04:17:51;99530.97;;;19.56;86.41
6387;BME280;3226;42.162;24.756;2023-08-08T04:20:19;99537.31;;;19.55;87.18
6387;BME280;3226;42.162;24.756;2023-08-08T04:22:47;99539.13;;;19.17;88.76
6387;BME280;3226;42.162;24.756;2023-08-08T04:25:15;99537.56;;;19.08;91.25
6387;BME280;3226;42.162;24.756;2023-08-08T04:27:43;99555.50;;;19.06;93.73
6387;BME280;3226;42.162;24.756;2023-08-08T04:30:11;99559.88;;;18.84;98.56
6387;BME280;3226;42.162;24.756;2023-08-08T04:32:41;99571.56;;;18.44;100.00
6387;BME280;3226;42.162;24.756;2023-08-08T04:35:09;99556.06;;;18.18;100.00
6387;BME280;3226;42.162;24.756;2023-08-08T04:37:37;99551.28;;;18.13;100.00
6387;BME280;3226;42.162;24.756;2023-08-08T04:40:06;99553.31;;;18.11;100.00
6387;BME280;3226;42.162;24.756;2023-08-08T04:42:35;99563.41;;;18.31;100.00
6387;BME280;3226;42.162;24.756;2023-08-08T04:45:04;99559.28;;;18.28;100.00
6387;BME280;3226;42.162;24.756;2023-08-08T04:47:32;99534.22;;;18.16;100.00
6387;BME280;3226;42.162;24.756;2023-08-08T04:50:02;99559.84;;;18.24;100.00
6387;BME280;3226;42.162;24.756;2023-08-08T04:52:30;99558.38;;;18.21;100.00
6387;BME280;3226;42.162;24.756;2023-08-08T04:54:58;99582.69;;;18.25;100.00
6387;BME280;3226;42.162;24.756;2023-08-08T04:57:26;99582.56;;;18.18;100.00
6387;BME280;3226;42.162;24.756;2023-08-08T04:59:54;99595.69;;;18.11;100.00
6387;BME280;3226;42.162;24.756;2023-08-08T05:02:21;99605.50;;;18.11;100.00
6387;BME280;3226;42.162;24.756;2023-08-08T05:04:49;99613.84;;;18.23;100.00
6387;BME280;3226;42.162;24.756;2023-08-08T05:07:19;99612.53;;;18.18;100.00
6387;BME280;3226;42.162;24.756;2023-08-08T05:09:47;99618.09;;;18.09;100.00
6387;BME280;3226;42.162;24.756;2023-08-08T05:12:15;99633.22;;;18.23;100.00
6387;BME280;3226;42.162;24.756;2023-08-08T05:14:43;99643.66;;;18.25;100.00
6387;BME280;3226;42.162;24.756;2023-08-08T05:17:11;99645.16;;;18.19;100.00
6387;BME280;3226;42.162;24.756;2023-08-08T05:19:39;99646.03;;;18.34;100.00
6387;BME280;3226;42.162;24.756;2023-08-08T05:22:06;99645.50;;;18.39;100.00
6387;BME280;3226;42.162;24.756;2023-08-08T05:24:36;99659.41;;;18.41;100.00
6387;BME280;3226;42.162;24.756;2023-08-08T05:27:04;99653.47;;;18.39;100.00
6387;BME280;3226;42.162;24.756;2023-08-08T05:29:32;99663.19;;;18.47;100.00
6387;BME280;3226;42.162;24.756;2023-08-08T05:32:00;99662.63;;;18.52;100.00
6387;BME280;3226;42.162;24.756;2023-08-08T05:34:30;99669.91;;;18.58;100.00
6387;BME280;3226;42.162;24.756;2023-08-08T05:36:58;99671.72;;;18.57;100.00
6387;BME280;3226;42.162;24.756;2023-08-08T05:39:43;99682.44;;;18.64;100.00
6387;BME280;3226;42.162;24.756;2023-08-08T05:42:12;99681.16;;;18.60;100.00
6387;BME280;3226;42.162;24.756;2023-08-08T05:44:40;99698.00;;;18.67;100.00
6387;BME280;3226;42.162;24.756;2023-08-08T05:47:09;99668.59;;;18.54;100.00
6387;BME280;3226;42.162;24.756;2023-08-08T05:49:38;99691.00;;;18.51;100.00
6387;BME280;3226;42.162;24.756;2023-08-08T05:52:08;99702.31;;;18.45;100.00
6387;BME280;3226;42.162;24.756;2023-08-08T05:54:37;99702.91;;;18.32;100.00
6387;BME280;3226;42.162;24.756;2023-08-08T05:57:07;99707.84;;;18.35;100.00
6387;BME280;3226;42.162;24.756;2023-08-08T05:59:35;99713.88;;;18.20;100.00
6387;BME280;3226;42.162;24.756;2023-08-08T06:02:03;99712.22;;;18.19;100.00
6387;BME280;3226;42.162;24.756;2023-08-08T06:04:31;99705.28;;;18.18;100.00
6387;BME280;3226;42.162;24.756;2023-08-08T06:06:59;99715.22;;;18.25;100.00
6387;BME280;3226;42.162;24.756;2023-08-08T06:09:27;99705.13;;;18.20;100.00
6387;BME280;3226;42.162;24.756;2023-08-08T06:11:55;99703.81;;;18.16;100.00
6387;BME280;3226;42.162;24.756;2023-08-08T06:14:25;99699.69;;;18.13;100.00
6387;BME280;3226;42.162;24.756;2023-08-08T06:16:53;99708.94;;;18.17;100.00
6387;BME280;3226;42.162;24.756;2023-08-08T06:19:21;99693.59;;;18.13;100.00
6387;BME280;3226;42.162;24.756;2023-08-08T06:21:49;99706.06;;;17.96;100.00
6387;BME280;3226;42.162;24.756;2023-08-08T06:24:17;99710.00;;;18.08;100.00
6387;BME280;3226;42.162;24.756;2023-08-08T06:26:45;99720.28;;;18.03;100.00
6387;BME280;3226;42.162;24.756;2023-08-08T06:29:13;99716.81;;;18.02;100.00
6387;BME280;3226;42.162;24.756;2023-08-08T06:31:43;99708.53;;;18.05;100.00
6387;BME280;3226;42.162;24.756;2023-08-08T06:34:11;99668.28;;;17.70;100.00
6387;BME280;3226;42.162;24.756;2023-08-08T06:36:39;99708.59;;;18.20;100.00
6387;BME280;3226;42.162;24.756;2023-08-08T06:39:07;99709.47;;;18.13;100.00
6387;BME280;3226;42.162;24.756;2023-08-08T06:41:35;99710.56;;;18.27;100.00
6387;BME280;3226;42.162;24.756;2023-08-08T06:44:07;99705.00;;;18.13;100.00
6387;BME280;3226;42.162;24.756;2023-08-08T06:46:35;99705.47;;;18.17;100.00
6387;BME280;3226;42.162;24.756;2023-08-08T06:49:04;99705.56;;;18.32;100.00
6387;BME280;3226;42.162;24.756;2023-08-08T06:51:33;99709.97;;;18.40;100.00
6387;BME280;3226;42.162;24.756;2023-08-08T06:54:01;99684.41;;;18.24;100.00
6387;BME280;3226;42.162;24.756;2023-08-08T06:56:30;99708.19;;;18.32;100.00
6387;BME280;3226;42.162;24.756;2023-08-08T06:58:58;99708.97;;;18.41;100.00
6387;BME280;3226;42.162;24.756;2023-08-08T07:01:26;99707.66;;;18.60;100.00
6387;BME280;3226;42.162;24.756;2023-08-08T07:03:54;99707.41;;;18.70;100.00
6387;BME280;3226;42.162;24.756;2023-08-08T07:06:23;99704.66;;;18.63;100.00
6387;BME280;3226;42.162;24.756;2023-08-08T07:08:51;99709.69;;;18.58;100.00
6387;BME280;3226;42.162;24.756;2023-08-08T07:11:19;99713.94;;;18.44;100.00
6387;BME280;3226;42.162;24.756;2023-08-08T07:13:48;99711.63;;;18.41;100.00
6387;BME280;3226;42.162;24.756;2023-08-08T07:16:16;99714.25;;;18.64;100.00
6387;BME280;3226;42.162;24.756;2023-08-08T07:18:45;99702.41;;;18.75;100.00
6387;BME280;3226;42.162;24.756;2023-08-08T07:21:16;99708.66;;;18.82;100.00
6387;BME280;3226;42.162;24.756;2023-08-08T07:23:45;99711.69;;;18.94;100.00
6387;BME280;3226;42.162;24.756;2023-08-08T07:26:13;99707.91;;;18.88;100.00
6387;BME280;3226;42.162;24.756;2023-08-08T07:28:41;99716.63;;;18.97;100.00
6387;BME280;3226;42.162;24.756;2023-08-08T07:31:09;99720.88;;;19.06;100.00
6387;BME280;3226;42.162;24.756;2023-08-08T07:33:37;99718.06;;;19.23;100.00
6387;BME280;3226;42.162;24.756;2023-08-08T07:36:05;99712.47;;;19.33;100.00
6387;BME280;3226;42.162;24.756;2023-08-08T07:38:33;99721.09;;;19.50;97.07
6387;BME280;3226;42.162;24.756;2023-08-08T07:41:03;99720.28;;;19.49;94.77
6387;BME280;3226;42.162;24.756;2023-08-08T07:43:31;99722.72;;;19.51;94.40
6387;BME280;3226;42.162;24.756;2023-08-08T07:45:59;99725.13;;;19.46;93.58
6387;BME280;3226;42.162;24.756;2023-08-08T07:48:27;99727.13;;;19.44;92.43
6387;BME280;3226;42.162;24.756;2023-08-08T07:50:55;99728.94;;;19.58;90.87
6387;BME280;3226;42.162;24.756;2023-08-08T07:53:23;99728.25;;;19.64;90.89
6387;BME280;3226;42.162;24.756;2023-08-08T07:55:51;99733.81;;;19.55;93.82
6387;BME280;3226;42.162;24.756;2023-08-08T07:58:20;99727.88;;;19.53;93.88
6387;BME280;3226;42.162;24.756;2023-08-08T08:00:52;99734.19;;;19.52;96.15
6387;BME280;3226;42.162;24.756;2023-08-08T08:03:22;99745.63;;;19.52;95.35
6387;BME280;3226;42.162;24.756;2023-08-08T08:05:50;99739.94;;;19.70;91.42
6387;BME280;3226;42.162;24.756;2023-08-08T08:08:18;99744.44;;;19.70;92.19
6387;BME280;3226;42.162;24.756;2023-08-08T08:10:48;99740.50;;;19.65;93.44
6387;BME280;3226;42.162;24.756;2023-08-08T08:13:17;99738.66;;;19.66;92.54
6387;BME280;3226;42.162;24.756;2023-08-08T08:15:47;99730.53;;;19.68;89.98
6387;BME280;3226;42.162;24.756;2023-08-08T08:18:15;99738.13;;;19.71;84.63
6387;BME280;3226;42.162;24.756;2023-08-08T08:20:45;99740.66;;;19.79;84.88
6387;BME280;3226;42.162;24.756;2023-08-08T08:23:13;99738.28;;;19.69;84.08
6387;BME280;3226;42.162;24.756;2023-08-08T08:25:41;99736.56;;;19.91;82.74
6387;BME280;3226;42.162;24.756;2023-08-08T08:28:09;99738.84;;;19.94;83.16
6387;BME280;3226;42.162;24.756;2023-08-08T08:30:37;99730.94;;;19.86;82.61
6387;BME280;3226;42.162;24.756;2023-08-08T08:33:06;99729.38;;;20.07;83.07
6387;BME280;3226;42.162;24.756;2023-08-08T08:35:34;99729.53;;;20.20;82.24
6387;BME280;3226;42.162;24.756;2023-08-08T08:38:03;99720.78;;;20.27;79.36
6387;BME280;3226;42.162;24.756;2023-08-08T08:40:34;99723.16;;;20.36;79.62
6387;BME280;3226;42.162;24.756;2023-08-08T08:43:04;99726.00;;;20.57;76.88
6387;BME280;3226;42.162;24.756;2023-08-08T08:45:32;99719.41;;;20.74;77.66
6387;BME280;3226;42.162;24.756;2023-08-08T08:48:02;99718.91;;;20.86;74.17
6387;BME280;3226;42.162;24.756;2023-08-08T08:50:33;99719.84;;;21.00;73.10
6387;BME280;3226;42.162;24.756;2023-08-08T08:53:01;99720.53;;;21.15;74.02
6387;BME280;3226;42.162;24.756;2023-08-08T08:55:30;99718.31;;;21.19;73.46
6387;BME280;3226;42.162;24.756;2023-08-08T08:57:58;99711.50;;;21.45;70.04
6387;BME280;3226;42.162;24.756;2023-08-08T09:00:26;99693.75;;;21.59;67.39
6387;BME280;3226;42.162;24.756;2023-08-08T09:02:54;99707.81;;;21.81;65.49
6387;BME280;3226;42.162;24.756;2023-08-08T09:05:24;99707.03;;;21.94;65.91
6387;BME280;3226;42.162;24.756;2023-08-08T09:07:54;99703.56;;;22.07;65.81
6387;BME280;3226;42.162;24.756;2023-08-08T09:10:22;99709.72;;;22.07;63.64
6387;BME280;3226;42.162;24.756;2023-08-08T09:12:52;99697.91;;;22.30;61.81
6387;BME280;3226;42.162;24.756;2023-08-08T09:15:20;99696.72;;;22.46;62.76
6387;BME280;3226;42.162;24.756;2023-08-08T09:17:48;99695.69;;;22.47;59.63
6387;BME280;3226;42.162;24.756;2023-08-08T09:20:17;99694.94;;;22.05;57.26
6387;BME280;3226;42.162;24.756;2023-08-08T09:22:45;99693.75;;;22.14;59.19
6387;BME280;3226;42.162;24.756;2023-08-08T09:25:14;99691.53;;;22.45;57.58
6387;BME280;3226;42.162;24.756;2023-08-08T09:27:42;99688.91;;;22.72;54.80
6387;BME280;3226;42.162;24.756;2023-08-08T09:30:11;99674.97;;;22.70;52.92
6387;BME280;3226;42.162;24.756;2023-08-08T09:32:39;99686.66;;;22.89;52.16
6387;BME280;3226;42.162;24.756;2023-08-08T09:35:07;99690.94;;;22.96;52.04
6387;BME280;3226;42.162;24.756;2023-08-08T09:37:37;99695.06;;;22.79;50.75
6387;BME280;3226;42.162;24.756;2023-08-08T09:40:06;99682.97;;;22.70;50.05
6387;BME280;3226;42.162;24.756;2023-08-08T09:42:40;99690.50;;;23.06;52.43
6387;BME280;3226;42.162;24.756;2023-08-08T09:45:09;99689.47;;;23.07;50.24
6387;BME280;3226;42.162;24.756;2023-08-08T09:47:38;99680.25;;;23.17;50.57
6387;BME280;3226;42.162;24.756;2023-08-08T09:50:07;99683.91;;;23.29;50.22
6387;BME280;3226;42.162;24.756;2023-08-08T09:52:36;99653.69;;;23.29;50.68
6387;BME280;3226;42.162;24.756;2023-08-08T09:55:06;99685.00;;;23.67;48.85
6387;BME280;3226;42.162;24.756;2023-08-08T09:57:34;99676.22;;;23.99;48.46
6387;BME280;3226;42.162;24.756;2023-08-08T10:00:05;99675.09;;;24.20;49.71
6387;BME280;3226;42.162;24.756;2023-08-08T10:02:38;99671.50;;;24.33;47.31
6387;BME280;3226;42.162;24.756;2023-08-08T10:05:07;99674.22;;;24.51;45.84
6387;BME280;3226;42.162;24.756;2023-08-08T10:07:35;99672.84;;;24.17;46.49
6387;BME280;3226;42.162;24.756;2023-08-08T10:10:04;99675.22;;;23.93;45.37
6387;BME280;3226;42.162;24.756;2023-08-08T10:12:32;99677.16;;;23.13;46.01
6387;BME280;3226;42.162;24.756;2023-08-08T10:15:00;99674.84;;;23.23;46.83
6387;BME280;3226;42.162;24.756;2023-08-08T10:17:35;99682.56;;;23.65;48.21
6387;BME280;3226;42.162;24.756;2023-08-08T10:20:04;99668.38;;;24.10;44.65
6387;BME280;3226;42.162;24.756;2023-08-08T10:22:41;99666.97;;;24.33;44.13
6387;BME280;3226;42.162;24.756;2023-08-08T10:25:18;99664.91;;;24.61;44.70
6387;BME280;3226;42.162;24.756;2023-08-08T10:27:46;99655.19;;;24.41;42.61
6387;BME280;3226;42.162;24.756;2023-08-08T10:30:14;99668.91;;;24.19;42.79
6387;BME280;3226;42.162;24.756;2023-08-08T10:32:45;99661.25;;;24.55;43.28
6387;BME280;3226;42.162;24.756;2023-08-08T10:35:14;99655.91;;;24.74;43.93
6387;BME280;3226;42.162;24.756;2023-08-08T10:37:52;99669.06;;;23.92;43.55
6387;BME280;3226;42.162;24.756;2023-08-08T10:40:21;99663.28;;;23.50;44.22
6387;BME280;3226;42.162;24.756;2023-08-08T10:42:49;99657.91;;;23.57;45.47
6387;BME280;3226;42.162;24.756;2023-08-08T10:45:17;99663.72;;;23.47;44.88
6387;BME280;3226;42.162;24.756;2023-08-08T10:47:46;99662.50;;;23.43;43.97
6387;BME280;3226;42.162;24.756;2023-08-08T10:50:15;99640.41;;;23.02;44.86
6387;BME280;3226;42.162;24.756;2023-08-08T10:52:53;99660.91;;;23.35;44.56
6387;BME280;3226;42.162;24.756;2023-08-08T10:55:23;99659.81;;;23.43;44.40
6387;BME280;3226;42.162;24.756;2023-08-08T10:57:57;99656.78;;;23.78;45.86
6387;BME280;3226;42.162;24.756;2023-08-08T11:00:27;99654.94;;;23.78;43.29
6387;BME280;3226;42.162;24.756;2023-08-08T11:02:58;99657.91;;;23.57;43.31
6387;BME280;3226;42.162;24.756;2023-08-08T11:05:28;99654.47;;;23.49;42.56
6387;BME280;3226;42.162;24.756;2023-08-08T11:07:58;99640.56;;;23.34;42.18
6387;BME280;3226;42.162;24.756;2023-08-08T11:10:26;99656.97;;;23.83;43.22
6387;BME280;3226;42.162;24.756;2023-08-08T11:13:00;99650.53;;;24.30;43.44
6387;BME280;3226;42.162;24.756;2023-08-08T11:15:31;99643.88;;;24.39;41.97
6387;BME280;3226;42.162;24.756;2023-08-08T11:18:01;99637.00;;;24.24;41.23
6387;BME280;3226;42.162;24.756;2023-08-08T11:20:30;99644.06;;;24.12;42.05
6387;BME280;3226;42.162;24.756;2023-08-08T11:22:59;99637.75;;;24.32;41.96
6387;BME280;3226;42.162;24.756;2023-08-08T11:25:29;99595.22;;;24.49;42.59
6387;BME280;3226;42.162;24.756;2023-08-08T11:27:59;99587.84;;;24.44;41.30
6387;BME280;3226;42.162;24.756;2023-08-08T11:30:28;99628.09;;;25.00;42.09
6387;BME280;3226;42.162;24.756;2023-08-08T11:32:56;99632.34;;;25.26;42.28
6387;BME280;3226;42.162;24.756;2023-08-08T11:35:29;99612.69;;;24.77;42.19
6387;BME280;3226;42.162;24.756;2023-08-08T11:37:58;99625.13;;;24.39;42.96
6387;BME280;3226;42.162;24.756;2023-08-08T11:40:28;99620.25;;;24.04;42.21
6387;BME280;3226;42.162;24.756;2023-08-08T11:42:58;99619.38;;;24.10;42.33
6387;BME280;3226;42.162;24.756;2023-08-08T11:45:26;99618.78;;;24.08;42.09
6387;BME280;3226;42.162;24.756;2023-08-08T11:47:55;99620.13;;;24.24;41.66
6387;BME280;3226;42.162;24.756;2023-08-08T11:50:24;99616.69;;;24.42;41.22
6387;BME280;3226;42.162;24.756;2023-08-08T11:52:56;99614.00;;;24.42;40.79
6387;BME280;3226;42.162;24.756;2023-08-08T11:55:27;99601.13;;;24.58;40.26
6387;BME280;3226;42.162;24.756;2023-08-08T11:57:56;99603.84;;;24.69;40.45
6387;BME280;3226;42.162;24.756;2023-08-08T12:00:27;99599.22;;;25.02;39.79
6387;BME280;3226;42.162;24.756;2023-08-08T12:02:57;99596.69;;;25.07;39.56
6387;BME280;3226;42.162;24.756;2023-08-08T12:05:26;99590.66;;;24.93;39.71
6387;BME280;3226;42.162;24.756;2023-08-08T12:07:55;99596.16;;;25.54;40.26
6387;BME280;3226;42.162;24.756;2023-08-08T12:10:24;99593.84;;;26.01;39.85
6387;BME280;3226;42.162;24.756;2023-08-08T12:12:53;99565.28;;;26.18;39.07
6387;BME280;3226;42.162;24.756;2023-08-08T12:15:22;99590.63;;;26.46;37.97
6387;BME280;3226;42.162;24.756;2023-08-08T12:17:51;99588.03;;;26.27;38.18
6387;BME280;3226;42.162;24.756;2023-08-08T12:20:19;99586.84;;;25.69;40.50
6387;BME280;3226;42.162;24.756;2023-08-08T12:22:47;99581.53;;;25.01;42.10
6387;BME280;3226;42.162;24.756;2023-08-08T12:25:16;99580.47;;;24.83;43.26
6387;BME280;3226;42.162;24.756;2023-08-08T12:27:44;99508.44;;;24.38;42.18
6387;BME280;3226;42.162;24.756;2023-08-08T12:30:15;99576.72;;;25.22;41.72
6387;BME280;3226;42.162;24.756;2023-08-08T12:32:43;99576.06;;;25.26;40.08
6387;BME280;3226;42.162;24.756;2023-08-08T12:35:11;99572.28;;;25.16;38.93
6387;BME280;3226;42.162;24.756;2023-08-08T12:37:39;99566.97;;;25.27;40.29
6387;BME280;3226;42.162;24.756;2023-08-08T12:40:08;99562.59;;;25.45;40.23
6387;BME280;3226;42.162;24.756;2023-08-08T12:42:37;99567.41;;;25.74;39.54
6387;BME280;3226;42.162;24.756;2023-08-08T12:45:06;99573.53;;;26.05;39.62
6387;BME280;3226;42.162;24.756;2023-08-08T12:47:34;99554.47;;;26.37;39.63
6387;BME280;3226;42.162;24.756;2023-08-08T12:50:04;99553.63;;;26.36;38.83
6387;BME280;3226;42.162;24.756;2023-08-08T12:52:32;99565.19;;;26.37;37.33
6387;BME280;3226;42.162;24.756;2023-08-08T12:55:00;99553.09;;;25.92;36.83
6387;BME280;3226;42.162;24.756;2023-08-08T12:57:28;99550.19;;;25.93;37.25
6387;BME280;3226;42.162;24.756;2023-08-08T12:59:57;99559.75;;;26.01;37.61
6387;BME280;3226;42.162;24.756;2023-08-08T13:02:25;99556.47;;;25.87;37.15
6387;BME280;3226;42.162;24.756;2023-08-08T13:04:54;99548.53;;;25.92;36.63
6387;BME280;3226;42.162;24.756;2023-08-08T13:07:22;99544.81;;;25.93;37.70
6387;BME280;3226;42.162;24.756;2023-08-08T13:09:50;99545.75;;;25.87;38.14
6387;BME280;3226;42.162;24.756;2023-08-08T13:12:18;99540.69;;;26.21;38.00
6387;BME280;3226;42.162;24.756;2023-08-08T13:14:46;99538.34;;;26.37;36.86
6387;BME280;3226;42.162;24.756;2023-08-08T13:17:15;99544.78;;;26.36;37.97